Time;durP1;ratioP1;P1;durP2;ratioP2;P2;SDS_P1;SDS_P2;PMS_P1;PMS_P2;Temp;Humidity;BMP_temperature;BMP_pressure;BME280_temperature;BME280_humidity;BME280_pressure;Samples;Min_cycle;Max_cycle;Signal;HPM_P1;HPM_P2
2021/07/24 00:00:27;;;;;;;15.20;13.70;;;19.30;93.20;;;;;;5018740;28;20631;-90
2021/07/24 00:02:55;;;;;;;14.87;13.37;;;19.20;93.60;;;;;;5020045;28;20725;-90
2021/07/24 00:05:23;;;;;;;16.53;12.83;;;19.20;93.50;;;;;;5030707;28;20729;-90
2021/07/24 00:07:52;;;;;;;16.90;15.20;;;19.20;93.90;;;;;;5021050;28;20678;-90
2021/07/24 00:10:21;;;;;;;20.07;15.37;;;19.20;93.20;;;;;;5021757;28;20634;-90
2021/07/24 00:12:51;;;;;;;17.93;15.60;;;19.10;93.00;;;;;;5009755;28;20620;-90
2021/07/24 00:15:18;;;;;;;21.83;15.33;;;19.10;93.30;;;;;;5018096;28;20630;-90
2021/07/24 00:17:45;;;;;;;16.43;14.63;;;19.10;93.70;;;;;;5023259;28;20709;-90
2021/07/24 00:20:13;;;;;;;15.57;13.97;;;19.20;94.10;;;;;;5022964;28;20623;-90
2021/07/24 00:22:40;;;;;;;17.30;15.50;;;19.10;94.30;;;;;;5027290;28;20634;-90
2021/07/24 00:25:07;;;;;;;15.40;13.90;;;19.00;94.60;;;;;;5029284;28;20625;-90
2021/07/24 00:27:35;;;;;;;16.73;15.13;;;19.00;94.50;;;;;;5029336;28;20651;-90
2021/07/24 00:30:03;;;;;;;17.90;15.10;;;19.00;94.90;;;;;;5022204;28;20724;-89
2021/07/24 00:32:30;;;;;;;16.67;14.60;;;18.90;94.70;;;;;;5024626;28;20642;-90
2021/07/24 00:34:56;;;;;;;17.73;15.10;;;18.80;94.70;;;;;;5030136;28;20622;-90
2021/07/24 00:37:23;;;;;;;15.00;13.40;;;18.70;95.40;;;;;;5029067;28;20626;-89
2021/07/24 00:39:50;;;;;;;15.37;13.90;;;18.70;95.60;;;;;;5029373;28;20634;-90
2021/07/24 00:42:21;;;;;;;16.07;14.50;;;18.70;95.60;;;;;;5020559;28;20662;-89
2021/07/24 00:44:52;;;;;;;14.73;13.27;;;18.80;95.70;;;;;;5034145;28;20607;-90
2021/07/24 00:47:21;;;;;;;16.83;14.90;;;18.80;95.00;;;;;;5034159;28;20678;-90
2021/07/24 00:49:50;;;;;;;16.50;14.70;;;18.90;94.50;;;;;;5022782;28;20645;-90
2021/07/24 00:52:17;;;;;;;16.10;14.60;;;19.00;94.00;;;;;;5032970;28;20637;-90
2021/07/24 00:54:44;;;;;;;16.17;14.57;;;18.90;94.20;;;;;;5014897;28;20689;-90
2021/07/24 00:57:13;;;;;;;14.07;12.73;;;18.90;94.40;;;;;;5019294;28;20629;-90
2021/07/24 00:59:40;;;;;;;17.47;13.70;;;18.80;95.10;;;;;;5030324;28;20623;-90
2021/07/24 01:02:08;;;;;;;16.17;14.70;;;18.80;94.80;;;;;;5030997;28;20634;-90
2021/07/24 01:04:36;;;;;;;14.70;13.07;;;18.80;94.90;;;;;;5030521;28;20630;-90
2021/07/24 01:07:06;;;;;;;17.07;14.60;;;18.80;95.50;;;;;;5013414;28;20814;-90
2021/07/24 01:09:35;;;;;;;16.30;14.50;;;18.80;95.80;;;;;;5014629;28;21225;-90
2021/07/24 01:12:04;;;;;;;14.97;13.50;;;18.80;95.60;;;;;;5010507;28;20653;-90
2021/07/24 01:14:33;;;;;;;18.33;14.40;;;18.80;94.80;;;;;;5032089;28;20629;-90
2021/07/24 01:17:01;;;;;;;16.33;14.70;;;19.00;93.60;;;;;;5014947;28;21276;-90
2021/07/24 01:19:31;;;;;;;15.40;13.80;;;18.90;93.40;;;;;;5014588;28;20731;-90
2021/07/24 01:22:01;;;;;;;16.80;15.20;;;18.90;93.90;;;;;;5028377;28;20969;-90
2021/07/24 01:24:29;;;;;;;15.70;14.10;;;18.80;95.10;;;;;;5020816;28;20643;-90
2021/07/24 01:26:57;;;;;;;24.57;14.23;;;18.80;94.40;;;;;;5013418;28;20661;-90
2021/07/24 01:29:25;;;;;;;17.10;14.10;;;18.80;94.20;;;;;;5022451;28;21231;-90
2021/07/24 01:31:54;;;;;;;15.30;13.80;;;18.80;93.80;;;;;;5026371;28;20649;-89
2021/07/24 01:34:22;;;;;;;14.37;12.97;;;18.80;92.50;;;;;;5014883;28;20751;-90
2021/07/24 01:36:50;;;;;;;14.60;13.17;;;18.60;92.60;;;;;;5014265;28;21083;-89
2021/07/24 01:39:19;;;;;;;17.03;14.60;;;18.60;94.10;;;;;;5032563;28;20634;-90
2021/07/24 01:41:48;;;;;;;14.50;13.10;;;18.70;93.60;;;;;;5038723;28;20633;-89
2021/07/24 01:44:17;;;;;;;14.30;13.00;;;18.70;93.80;;;;;;5033011;28;20666;-90
2021/07/24 01:46:46;;;;;;;15.07;13.57;;;18.70;94.30;;;;;;5021459;28;20672;-89
2021/07/24 01:52:46;;;;;;;15.40;13.30;;;18.60;94.40;;;;;;5019949;28;20700;-90
2021/07/24 01:55:05;;;;;;;14.47;12.97;;;18.60;95.20;;;;;;5012315;28;20657;-90
2021/07/24 01:57:38;;;;;;;15.27;12.47;;;18.50;95.50;;;;;;5025433;28;20632;-89
2021/07/24 02:00:11;;;;;;;17.50;14.17;;;18.50;95.80;;;;;;5022575;28;21042;-89
2021/07/24 02:02:40;;;;;;;14.53;13.13;;;18.50;95.30;;;;;;5029460;28;20674;-89
2021/07/24 02:05:15;;;;;;;16.07;14.50;;;18.50;96.00;;;;;;5014263;28;20721;-89
2021/07/24 02:07:47;;;;;;;17.07;14.03;;;18.50;96.00;;;;;;5027766;28;21040;-90
2021/07/24 02:10:17;;;;;;;17.07;14.47;;;18.30;95.90;;;;;;5026781;28;20632;-90
2021/07/24 02:12:47;;;;;;;15.17;13.50;;;18.30;96.10;;;;;;5016579;28;20693;-90
2021/07/24 02:15:15;;;;;;;15.67;13.80;;;18.40;96.80;;;;;;5027815;28;20633;-90
2021/07/24 02:17:43;;;;;;;15.93;14.33;;;18.30;96.90;;;;;;5022978;28;20642;-90
2021/07/24 02:20:13;;;;;;;13.87;12.50;;;18.30;97.20;;;;;;5027845;28;21033;-89
2021/07/24 02:22:42;;;;;;;14.17;12.77;;;18.30;97.10;;;;;;5012068;28;21261;-90
2021/07/24 02:25:12;;;;;;;14.70;13.03;;;18.40;96.50;;;;;;5015477;28;20630;-90
2021/07/24 02:27:46;;;;;;;14.63;13.23;;;18.50;96.30;;;;;;5023571;28;21057;-90
2021/07/24 02:30:15;;;;;;;15.73;14.23;;;18.60;95.70;;;;;;5015497;28;20632;-90
2021/07/24 02:32:44;;;;;;;16.50;14.80;;;18.50;96.50;;;;;;5029148;28;21000;-90
2021/07/24 02:35:14;;;;;;;15.43;13.83;;;18.50;96.60;;;;;;5027644;28;20753;-90
2021/07/24 02:37:42;;;;;;;17.50;14.40;;;18.50;96.90;;;;;;5013177;28;20627;-89
2021/07/24 02:40:11;;;;;;;14.83;13.37;;;18.60;96.50;;;;;;5029856;28;20648;-90
2021/07/24 02:42:38;;;;;;;16.57;14.50;;;18.70;96.10;;;;;;5031851;28;21031;-89
2021/07/24 02:45:07;;;;;;;17.33;15.53;;;18.70;95.80;;;;;;5031277;28;20725;-90
2021/07/24 02:47:34;;;;;;;16.47;14.87;;;18.70;96.00;;;;;;5031527;28;21023;-90
2021/07/24 02:50:01;;;;;;;19.97;15.07;;;18.70;95.90;;;;;;5031659;28;20618;-90
2021/07/24 02:52:28;;;;;;;15.67;14.00;;;18.70;95.90;;;;;;5012475;28;21057;-90
2021/07/24 02:54:55;;;;;;;17.00;15.23;;;18.60;95.50;;;;;;5016647;28;20622;-90
2021/07/24 02:57:22;;;;;;;16.50;13.87;;;18.60;95.90;;;;;;5030126;28;20618;-90
2021/07/24 02:59:49;;;;;;;15.57;13.97;;;18.70;95.40;;;;;;5026171;28;20627;-90
2021/07/24 03:02:18;;;;;;;16.70;13.80;;;18.80;95.30;;;;;;5025557;28;20621;-90
2021/07/24 03:04:46;;;;;;;16.60;14.80;;;18.80;95.20;;;;;;5017027;28;20627;-89
2021/07/24 03:07:14;;;;;;;16.60;14.90;;;18.90;95.50;;;;;;5013298;28;20753;-89
2021/07/24 03:09:41;;;;;;;15.27;13.67;;;18.90;94.70;;;;;;5031286;28;20625;-89
2021/07/24 03:12:10;;;;;;;16.03;14.33;;;18.90;95.90;;;;;;5017418;28;21212;-89
2021/07/24 03:14:37;;;;;;;16.00;14.43;;;18.90;96.00;;;;;;5019309;28;20658;-90
2021/07/24 03:17:05;;;;;;;15.83;14.33;;;18.80;95.90;;;;;;5026058;28;20989;-90
2021/07/24 03:19:34;;;;;;;15.13;13.57;;;18.80;95.40;;;;;;5008075;28;20658;-90
2021/07/24 03:22:02;;;;;;;16.37;14.73;;;18.80;95.20;;;;;;5009932;28;20692;-90
2021/07/24 03:24:30;;;;;;;14.60;13.30;;;18.80;95.40;;;;;;5016556;28;20629;-90
2021/07/24 03:26:58;;;;;;;15.70;14.20;;;18.80;95.50;;;;;;5018153;28;21025;-90
2021/07/24 03:29:25;;;;;;;16.33;14.73;;;18.80;96.00;;;;;;5025714;28;20658;-90
2021/07/24 03:31:54;;;;;;;16.13;14.50;;;18.80;96.30;;;;;;5019843;28;20994;-90
2021/07/24 03:34:22;;;;;;;15.03;13.43;;;18.70;96.90;;;;;;5016554;28;20727;-90
2021/07/24 03:36:50;;;;;;;17.60;14.33;;;18.60;96.80;;;;;;5030972;28;20625;-90
2021/07/24 03:39:18;;;;;;;17.27;15.43;;;18.60;96.80;;;;;;5021243;28;20727;-90
2021/07/24 03:41:46;;;;;;;15.40;13.80;;;18.60;97.00;;;;;;5027672;28;20635;-89
2021/07/24 03:44:13;;;;;;;15.80;14.10;;;18.70;97.60;;;;;;5013549;28;20636;-90
2021/07/24 03:46:41;;;;;;;16.50;14.90;;;18.50;97.00;;;;;;5030010;28;20634;-90
2021/07/24 03:49:11;;;;;;;17.10;14.57;;;18.50;97.10;;;;;;5029954;28;20643;-90
2021/07/24 03:51:39;;;;;;;17.63;13.60;;;18.50;97.50;;;;;;5021617;28;20619;-90
2021/07/24 03:54:08;;;;;;;14.60;13.10;;;18.40;96.90;;;;;;5025945;28;21236;-90
2021/07/24 03:56:36;;;;;;;25.83;16.00;;;18.40;97.00;;;;;;5011895;28;21237;-90
2021/07/24 03:59:03;;;;;;;15.60;14.20;;;18.50;97.00;;;;;;5030269;28;20972;-90
2021/07/24 04:01:31;;;;;;;17.97;13.90;;;18.30;97.10;;;;;;5025976;28;20630;-90
2021/07/24 04:03:58;;;;;;;16.83;13.70;;;18.40;97.20;;;;;;5022561;28;20654;-89
2021/07/24 04:06:27;;;;;;;14.33;12.93;;;18.50;96.80;;;;;;5010567;28;20571;-90
2021/07/24 04:08:57;;;;;;;14.60;13.10;;;18.50;97.00;;;;;;5010835;28;21249;-91
2021/07/24 04:11:27;;;;;;;14.97;13.40;;;18.60;96.50;;;;;;5026914;28;20633;-90
2021/07/24 04:13:54;;;;;;;15.30;13.70;;;18.60;96.90;;;;;;5031392;28;20622;-90
2021/07/24 04:16:21;;;;;;;14.33;12.17;;;18.50;96.60;;;;;;5011539;28;20618;-90
2021/07/24 04:18:49;;;;;;;26.90;12.60;;;18.50;96.80;;;;;;5015323;28;20637;-90
2021/07/24 04:21:16;;;;;;;16.43;13.83;;;18.40;97.10;;;;;;5016645;28;20904;-89
2021/07/24 04:23:44;;;;;;;15.03;13.53;;;18.50;97.10;;;;;;5028025;28;21088;-90
2021/07/24 04:26:11;;;;;;;15.57;14.00;;;18.60;97.70;;;;;;5003931;28;21243;-90
2021/07/24 04:28:40;;;;;;;14.80;13.30;;;18.70;97.10;;;;;;5010767;28;20750;-90
2021/07/24 04:31:13;;;;;;;15.87;13.57;;;18.70;96.80;;;;;;5015720;28;20641;-90
2021/07/24 04:33:40;;;;;;;17.00;15.20;;;18.70;96.50;;;;;;5024045;28;21191;-90
2021/07/24 04:36:07;;;;;;;17.87;13.80;;;18.80;96.60;;;;;;5021843;28;20633;-90
2021/07/24 04:38:34;;;;;;;15.97;14.37;;;18.80;96.70;;;;;;5013080;28;20726;-89
2021/07/24 04:41:01;;;;;;;14.53;13.13;;;18.80;96.60;;;;;;5028224;28;21995;-90
2021/07/24 04:43:31;;;;;;;14.53;13.07;;;18.80;97.30;;;;;;5007687;28;20631;-90
2021/07/24 04:46:10;;;;;;;15.37;13.77;;;18.60;97.40;;;;;;5028301;28;20619;-90
2021/07/24 04:48:43;;;;;;;15.83;14.20;;;18.50;97.80;;;;;;5013910;28;20659;-90
2021/07/24 04:51:26;;;;;;;16.40;14.80;;;18.40;97.90;;;;;;5014956;28;20629;-89
2021/07/24 04:54:00;;;;;;;15.90;14.40;;;18.60;97.60;;;;;;5023130;28;20673;-90
2021/07/24 04:56:41;;;;;;;14.43;12.93;;;18.50;98.20;;;;;;5010776;28;20628;-90
2021/07/24 05:01:52;;;;;;;15.57;13.93;;;18.50;98.20;;;;;;5000237;28;20674;-91
2021/07/24 05:04:19;;;;;;;15.43;14.03;;;18.80;97.10;;;;;;5015454;28;20626;-90
2021/07/24 05:06:46;;;;;;;16.10;14.60;;;18.70;97.30;;;;;;5029578;28;20725;-90
2021/07/24 05:09:13;;;;;;;17.70;12.77;;;18.60;97.90;;;;;;5027687;28;20662;-90
2021/07/24 05:11:40;;;;;;;16.83;13.20;;;18.50;97.70;;;;;;5012858;28;21178;-90
2021/07/24 05:14:07;;;;;;;14.50;13.10;;;18.70;97.30;;;;;;5009437;28;21228;-89
2021/07/24 05:16:42;;;;;;;15.33;13.50;;;18.80;97.40;;;;;;5009955;28;20623;-90
2021/07/24 05:19:12;;;;;;;15.97;14.37;;;18.80;97.60;;;;;;5022594;28;20614;-89
2021/07/24 05:21:42;;;;;;;14.10;12.63;;;18.80;97.90;;;;;;5009709;28;20608;-91
2021/07/24 05:24:12;;;;;;;16.73;14.27;;;18.90;97.10;;;;;;5024230;28;20629;-88
2021/07/24 05:26:54;;;;;;;18.30;14.10;;;18.80;97.40;;;;;;5021176;28;20630;-90
2021/07/24 05:29:24;;;;;;;15.53;14.03;;;19.20;96.40;;;;;;5009357;28;20714;-90
2021/07/24 05:31:58;;;;;;;19.63;13.33;;;19.20;96.20;;;;;;5012791;28;20626;-89
2021/07/24 05:34:37;;;;;;;14.83;11.97;;;19.10;96.80;;;;;;5028889;28;20641;-91
2021/07/24 05:37:06;;;;;;;16.50;14.60;;;19.20;96.90;;;;;;5033371;28;20629;-90
2021/07/24 05:39:33;;;;;;;16.40;13.57;;;19.40;97.00;;;;;;5023479;28;20629;-90
2021/07/24 05:42:00;;;;;;;15.17;13.53;;;19.50;97.90;;;;;;5029298;28;20642;-91
2021/07/24 05:44:27;;;;;;;15.03;13.57;;;19.60;97.10;;;;;;5020008;28;21315;-90
2021/07/24 05:46:54;;;;;;;21.30;13.50;;;19.80;97.10;;;;;;5039052;28;20621;-91
2021/07/24 05:49:21;;;;;;;16.70;15.10;;;19.90;97.50;;;;;;5034575;28;20651;-89
2021/07/24 05:51:49;;;;;;;16.43;14.87;;;20.00;96.40;;;;;;5026324;28;20626;-90
2021/07/24 05:54:18;;;;;;;17.87;13.63;;;20.10;96.50;;;;;;5030782;28;20623;-90
2021/07/24 05:56:45;;;;;;;15.80;14.13;;;20.10;96.20;;;;;;5014951;28;20670;-89
2021/07/24 05:59:12;;;;;;;18.10;14.13;;;20.20;96.30;;;;;;5018568;28;20999;-90
2021/07/24 06:01:39;;;;;;;14.53;13.13;;;20.20;96.10;;;;;;5025747;28;20734;-90
2021/07/24 06:04:06;;;;;;;14.57;13.07;;;20.30;95.90;;;;;;5012251;28;20669;-90
2021/07/24 06:06:34;;;;;;;16.03;14.00;;;20.30;96.50;;;;;;5021676;28;20743;-90
2021/07/24 06:09:02;;;;;;;16.10;14.27;;;20.20;97.20;;;;;;5011843;28;20658;-90
2021/07/24 06:11:29;;;;;;;25.57;14.63;;;20.20;96.90;;;;;;5029514;28;20634;-90
2021/07/24 06:13:57;;;;;;;15.07;13.57;;;20.10;96.90;;;;;;5031617;28;21183;-91
2021/07/24 06:16:24;;;;;;;15.53;13.90;;;20.20;97.70;;;;;;5013783;28;20726;-90
2021/07/24 06:18:51;;;;;;;14.43;13.13;;;20.20;98.40;;;;;;5025351;28;20628;-90
2021/07/24 06:21:18;;;;;;;14.60;13.20;;;20.10;99.50;;;;;;5016061;28;20616;-91
2021/07/24 06:23:45;;;;;;;17.23;13.83;;;20.10;99.70;;;;;;5010608;28;20996;-90
2021/07/24 06:26:13;;;;;;;16.33;14.30;;;20.10;99.90;;;;;;5026597;28;20607;-90
2021/07/24 06:28:40;;;;;;;17.27;15.47;;;20.10;99.90;;;;;;5031559;28;20984;-90
2021/07/24 06:31:07;;;;;;;16.10;14.50;;;20.10;99.90;;;;;;5016345;28;20620;-90
2021/07/24 06:33:34;;;;;;;14.60;12.60;;;20.20;99.90;;;;;;5011387;28;20658;-90
2021/07/24 06:36:01;;;;;;;14.97;13.20;;;20.20;97.40;;;;;;5024682;28;20627;-91
2021/07/24 06:38:29;;;;;;;15.33;13.73;;;20.40;98.60;;;;;;5031972;28;21443;-91
2021/07/24 06:40:56;;;;;;;15.87;13.83;;;20.50;97.00;;;;;;5029169;28;20624;-90
2021/07/24 06:43:24;;;;;;;14.20;12.63;;;20.60;97.00;;;;;;5019183;28;20637;-89
2021/07/24 06:45:52;;;;;;;13.63;11.90;;;20.80;94.80;;;;;;5019652;28;20612;-90
2021/07/24 06:48:19;;;;;;;12.90;11.60;;;20.90;95.20;;;;;;5026406;28;20621;-91
2021/07/24 06:50:45;;;;;;;12.90;11.60;;;20.90;95.20;;;;;;5029054;28;20608;-91
2021/07/24 06:53:12;;;;;;;17.27;12.27;;;21.10;95.40;;;;;;5029429;28;20627;-90
2021/07/24 06:55:39;;;;;;;13.07;11.87;;;21.10;95.70;;;;;;5030281;28;20674;-91
2021/07/24 06:58:06;;;;;;;13.00;11.80;;;21.20;95.00;;;;;;5030463;28;20622;-91
2021/07/24 07:00:35;;;;;;;12.63;11.50;;;21.20;96.10;;;;;;5029705;28;20616;-90
2021/07/24 07:03:02;;;;;;;13.30;12.07;;;21.30;94.10;;;;;;5028229;28;20633;-90
2021/07/24 07:05:32;;;;;;;14.83;12.60;;;21.40;93.70;;;;;;5030514;28;20619;-91
2021/07/24 07:07:58;;;;;;;12.00;10.80;;;21.40;93.80;;;;;;5031198;28;20625;-91
2021/07/24 07:10:25;;;;;;;14.23;11.90;;;21.50;94.30;;;;;;5031273;28;20653;-92
2021/07/24 07:12:53;;;;;;;22.07;13.90;;;21.50;93.80;;;;;;5029909;28;21235;-89
2021/07/24 07:15:20;;;;;;;15.33;13.73;;;21.60;94.80;;;;;;5031367;28;20688;-90
2021/07/24 07:17:48;;;;;;;14.27;12.77;;;21.50;93.90;;;;;;5030919;28;20658;-90
2021/07/24 07:20:15;;;;;;;22.80;12.87;;;21.50;94.40;;;;;;5031606;28;20618;-90
2021/07/24 07:22:42;;;;;;;14.53;12.50;;;21.50;95.70;;;;;;5030521;28;20675;-90
2021/07/24 07:25:10;;;;;;;15.63;13.20;;;21.40;94.60;;;;;;5030753;28;20644;-90
2021/07/24 07:27:40;;;;;;;16.20;13.70;;;21.40;95.90;;;;;;5030808;28;20627;-89
2021/07/24 07:30:08;;;;;;;15.70;11.83;;;21.40;95.40;;;;;;5030663;28;20656;-91
2021/07/24 07:32:35;;;;;;;15.20;13.70;;;21.40;95.30;;;;;;5029499;28;21060;-91
2021/07/24 07:35:05;;;;;;;14.93;13.03;;;21.50;94.90;;;;;;5030866;28;20632;-90
2021/07/24 07:37:32;;;;;;;19.93;13.87;;;21.60;94.20;;;;;;5031057;28;20624;-90
2021/07/24 07:39:59;;;;;;;15.43;13.83;;;21.70;93.90;;;;;;5030592;28;20619;-91
2021/07/24 07:42:26;;;;;;;14.83;13.33;;;21.80;93.70;;;;;;5030034;28;20620;-91
2021/07/24 07:44:53;;;;;;;18.23;13.03;;;21.90;93.50;;;;;;5029856;28;20629;-90
2021/07/24 07:47:20;;;;;;;21.93;17.17;;;21.90;93.90;;;;;;5030769;28;20666;-90
2021/07/24 07:49:47;;;;;;;18.77;15.43;;;21.80;95.00;;;;;;5030505;28;20656;-90
2021/07/24 07:52:15;;;;;;;15.40;13.83;;;21.70;94.90;;;;;;5029673;28;20638;-89
2021/07/24 07:54:42;;;;;;;15.30;13.70;;;21.70;94.30;;;;;;5030462;28;20621;-90
2021/07/24 07:57:09;;;;;;;15.10;13.63;;;21.80;93.60;;;;;;5030204;28;20611;-90
2021/07/24 07:59:36;;;;;;;14.13;12.70;;;21.60;93.40;;;;;;5030291;28;20597;-89
2021/07/24 08:02:03;;;;;;;16.20;13.90;;;21.70;92.80;;;;;;5030119;28;20687;-90
2021/07/24 08:04:32;;;;;;;18.97;17.00;;;21.60;93.20;;;;;;5030356;28;20610;-89
2021/07/24 08:06:59;;;;;;;18.27;13.80;;;21.60;93.20;;;;;;5030543;28;20616;-90
2021/07/24 08:09:27;;;;;;;13.97;12.70;;;21.60;93.90;;;;;;5030305;28;20655;-90
2021/07/24 08:11:55;;;;;;;15.13;13.63;;;21.70;93.80;;;;;;5029428;28;20616;-89
2021/07/24 08:14:22;;;;;;;14.07;12.70;;;21.60;94.10;;;;;;5030051;28;20625;-90
2021/07/24 08:16:49;;;;;;;15.47;13.73;;;21.60;93.80;;;;;;5030562;28;20675;-90
2021/07/24 08:19:16;;;;;;;13.97;11.83;;;21.50;93.40;;;;;;5029831;28;21217;-88
2021/07/24 08:21:43;;;;;;;14.50;13.00;;;21.50;94.20;;;;;;5029703;28;20611;-90
2021/07/24 08:24:10;;;;;;;14.73;13.03;;;21.60;95.00;;;;;;5030257;28;20721;-90
2021/07/24 08:26:38;;;;;;;16.03;14.17;;;21.50;95.20;;;;;;5029777;28;20621;-88
2021/07/24 08:29:05;;;;;;;14.93;13.40;;;21.60;95.20;;;;;;5030159;28;20641;-90
2021/07/24 08:31:32;;;;;;;16.00;14.30;;;21.60;95.30;;;;;;5029801;28;20619;-90
2021/07/24 08:33:59;;;;;;;15.97;14.37;;;21.50;97.20;;;;;;5030001;28;20634;-89
2021/07/24 08:36:29;;;;;;;14.70;13.20;;;21.60;96.10;;;;;;5030041;28;20601;-90
2021/07/24 08:38:56;;;;;;;14.57;13.03;;;21.80;96.30;;;;;;5030011;28;20622;-89
2021/07/24 08:41:23;;;;;;;15.27;13.80;;;21.90;95.40;;;;;;5029147;28;20693;-89
2021/07/24 08:43:51;;;;;;;15.40;13.73;;;21.90;95.10;;;;;;5030468;28;20625;-89
2021/07/24 08:46:20;;;;;;;14.87;13.10;;;22.20;95.00;;;;;;5029931;28;20597;-90
2021/07/24 08:48:47;;;;;;;14.73;12.43;;;22.20;95.10;;;;;;5030471;28;20614;-89
2021/07/24 08:51:17;;;;;;;17.63;15.43;;;22.30;94.80;;;;;;5029038;28;20665;-88
2021/07/24 08:53:44;;;;;;;18.10;13.77;;;22.40;94.00;;;;;;5028736;28;20625;-90
2021/07/24 08:56:19;;;;;;;15.03;13.50;;;22.50;93.60;;;;;;5030091;28;20615;-89
2021/07/24 08:58:48;;;;;;;17.53;13.93;;;22.70;93.20;;;;;;5030181;28;20752;-89
2021/07/24 09:01:20;;;;;;;14.70;13.10;;;22.70;93.30;;;;;;5029196;28;20626;-86
2021/07/24 09:03:48;;;;;;;16.77;13.37;;;22.70;92.80;;;;;;5029927;28;20598;-88
2021/07/24 09:06:20;;;;;;;16.30;14.00;;;22.80;93.70;;;;;;5033281;28;20635;-87
2021/07/24 09:08:50;;;;;;;14.97;13.60;;;22.90;93.10;;;;;;5033837;28;20720;-88
2021/07/24 09:11:17;;;;;;;16.00;14.30;;;23.10;93.20;;;;;;5033090;28;20660;-87
2021/07/24 09:13:45;;;;;;;15.00;13.50;;;23.20;92.30;;;;;;5033520;28;20617;-88
2021/07/24 09:16:12;;;;;;;18.43;14.33;;;23.60;91.90;;;;;;5033453;28;20624;-88
2021/07/24 09:18:42;;;;;;;16.57;14.90;;;23.70;91.10;;;;;;5033124;28;20653;-87
2021/07/24 09:21:09;;;;;;;15.57;12.73;;;23.80;91.30;;;;;;5032786;28;20609;-87
2021/07/24 09:23:36;;;;;;;15.33;13.73;;;23.70;92.10;;;;;;5032410;28;20702;-87
2021/07/24 09:26:05;;;;;;;14.57;13.17;;;23.80;91.10;;;;;;5033308;28;21192;-88
2021/07/24 09:28:32;;;;;;;15.40;13.80;;;23.90;91.50;;;;;;5032911;28;20676;-87
2021/07/24 09:30:59;;;;;;;15.00;13.50;;;24.10;91.40;;;;;;5032902;28;20645;-87
2021/07/24 09:33:26;;;;;;;16.00;14.30;;;24.40;90.50;;;;;;5032735;28;20619;-88
2021/07/24 09:35:55;;;;;;;16.57;13.37;;;24.50;90.60;;;;;;5033270;28;20629;-88
2021/07/24 09:38:29;;;;;;;16.37;14.67;;;24.60;91.00;;;;;;5033666;28;20614;-87
2021/07/24 09:40:57;;;;;;;14.67;13.23;;;24.80;89.20;;;;;;5032729;28;20603;-86
2021/07/24 09:43:36;;;;;;;16.33;13.27;;;24.90;90.40;;;;;;5033184;28;20610;-90
2021/07/24 09:46:11;;;;;;;16.23;14.30;;;25.10;88.90;;;;;;5032980;28;20622;-88
2021/07/24 09:48:38;;;;;;;13.93;12.63;;;25.10;88.80;;;;;;5032819;28;20610;-88
2021/07/24 09:51:07;;;;;;;14.47;12.93;;;25.10;89.60;;;;;;5032326;28;20690;-88
2021/07/24 09:53:38;;;;;;;14.70;13.40;;;25.10;88.30;;;;;;5032878;28;20702;-89
2021/07/24 09:56:06;;;;;;;15.60;13.67;;;25.10;90.00;;;;;;5032826;28;20680;-85
2021/07/24 09:58:33;;;;;;;14.40;13.00;;;25.40;88.60;;;;;;5032989;28;21015;-86
2021/07/24 10:01:04;;;;;;;14.07;12.67;;;25.50;90.60;;;;;;5032576;28;20614;-89
2021/07/24 10:03:32;;;;;;;14.07;12.67;;;25.60;87.20;;;;;;5033391;28;20607;-90
2021/07/24 10:06:01;;;;;;;13.50;12.13;;;25.80;85.40;;;;;;5032509;28;20631;-88
2021/07/24 10:08:32;;;;;;;12.77;11.57;;;26.00;84.50;;;;;;5032846;28;20606;-86
2021/07/24 10:10:59;;;;;;;12.47;11.17;;;26.10;82.80;;;;;;5032297;28;20696;-86
2021/07/24 10:13:32;;;;;;;12.70;11.13;;;26.30;80.10;;;;;;5032334;28;20607;-87
2021/07/24 10:15:59;;;;;;;11.97;10.60;;;26.40;81.00;;;;;;5032440;28;20627;-87
2021/07/24 10:18:27;;;;;;;13.63;12.20;;;26.60;81.20;;;;;;5032050;28;20635;-86
2021/07/24 10:20:54;;;;;;;13.93;11.37;;;26.70;83.00;;;;;;5032134;28;21136;-86
2021/07/24 10:23:23;;;;;;;14.93;10.80;;;26.80;80.50;;;;;;5030225;28;20633;-88
2021/07/24 10:26:01;;;;;;;10.90;9.90;;;26.80;79.20;;;;;;5032583;28;20654;-88
2021/07/24 10:28:32;;;;;;;11.50;10.50;;;26.80;79.70;;;;;;5031273;28;20933;-89
2021/07/24 10:31:09;;;;;;;10.77;9.33;;;27.10;79.70;;;;;;5032807;28;20658;-88
2021/07/24 10:33:37;;;;;;;9.90;9.00;;;27.10;74.50;;;;;;5031383;28;21084;-86
2021/07/24 10:36:13;;;;;;;10.83;9.83;;;27.30;74.90;;;;;;5033746;28;20631;-88
2021/07/24 10:38:58;;;;;;;12.57;9.13;;;27.30;73.00;;;;;;5033221;28;21242;-85
2021/07/24 10:41:50;;;;;;;11.57;10.20;;;27.40;73.70;;;;;;5033738;28;20607;-87
2021/07/24 10:44:33;;;;;;;10.03;9.03;;;27.50;79.60;;;;;;5032822;28;20631;-89
2021/07/24 10:47:18;;;;;;;10.10;8.53;;;27.40;74.10;;;;;;5033717;28;20618;-88
2021/07/24 10:50:17;;;;;;;8.70;7.90;;;27.40;72.30;;;;;;5034308;28;20643;-90
2021/07/24 10:53:12;;;;;;;9.90;8.60;;;27.70;73.50;;;;;;5031611;28;20730;-89
2021/07/24 10:55:43;;;;;;;9.00;8.20;;;28.00;71.40;;;;;;5031049;28;20641;-91
2021/07/24 10:58:12;;;;;;;9.33;8.23;;;28.30;71.40;;;;;;5029176;28;20679;-90
2021/07/24 11:00:50;;;;;;;9.80;7.93;;;28.40;69.80;;;;;;5029774;28;20615;-92
2021/07/24 11:03:35;;;;;;;9.20;8.33;;;28.50;67.20;;;;;;5026223;28;20631;-90
2021/07/24 11:06:26;;;;;;;11.23;8.70;;;28.20;64.20;;;;;;5020666;28;21154;-91
2021/07/24 11:09:09;;;;;;;7.97;7.27;;;28.70;68.10;;;;;;5031453;28;20665;-91
2021/07/24 11:11:38;;;;;;;7.97;7.17;;;28.70;64.50;;;;;;5027073;28;20655;-89
2021/07/24 11:14:07;;;;;;;9.50;8.30;;;28.60;61.90;;;;;;5051498;28;20629;-91
2021/07/24 11:17:21;;;;;;;8.83;7.50;;;28.50;66.20;;;;;;5042500;28;20997;-92
2021/07/24 11:20:25;;;;;;;12.20;7.80;;;28.50;64.30;;;;;;5010930;28;20678;-91
2021/07/24 11:23:12;;;;;;;7.00;6.40;;;28.20;63.40;;;;;;4988967;28;20617;-90
2021/07/24 11:25:43;;;;;;;8.40;7.60;;;27.90;66.30;;;;;;5009751;28;20987;-92
2021/07/24 11:28:19;;;;;;;8.13;7.40;;;27.80;68.10;;;;;;5017638;28;20634;-92
2021/07/24 11:30:57;;;;;;;8.70;7.80;;;27.90;65.60;;;;;;5050574;28;20749;-90
2021/07/24 11:33:30;;;;;;;10.20;8.57;;;27.60;65.00;;;;;;5037916;28;20682;-92
2021/07/24 11:36:03;;;;;;;8.17;7.47;;;27.40;69.40;;;;;;5031553;28;20615;-89
2021/07/24 11:38:31;;;;;;;8.57;7.83;;;27.20;65.20;;;;;;5031506;28;20666;-89
2021/07/24 11:41:00;;;;;;;10.13;7.17;;;27.10;67.30;;;;;;5031060;28;20619;-92
2021/07/24 11:43:27;;;;;;;8.40;7.40;;;26.90;67.00;;;;;;5030222;28;20733;-92
2021/07/24 11:46:08;;;;;;;8.87;7.97;;;26.90;66.90;;;;;;5029174;28;21043;-90
2021/07/24 11:48:38;;;;;;;8.50;7.60;;;26.70;67.20;;;;;;5029918;28;21281;-90
2021/07/24 11:51:25;;;;;;;9.60;8.60;;;26.60;67.40;;;;;;5030579;28;20655;-88
2021/07/24 11:53:55;;;;;;;8.50;7.60;;;26.50;68.20;;;;;;5031442;28;20717;-91
2021/07/24 11:56:23;;;;;;;12.47;8.50;;;26.60;70.30;;;;;;5030997;28;20626;-91
2021/07/24 11:58:54;;;;;;;9.23;8.43;;;26.60;68.80;;;;;;5031147;28;21171;-90
2021/07/24 12:01:29;;;;;;;8.87;7.97;;;26.80;69.00;;;;;;5030732;28;21061;-91
2021/07/24 12:04:07;;;;;;;10.57;8.00;;;27.20;69.20;;;;;;5031325;28;20713;-90
2021/07/24 12:06:38;;;;;;;9.40;8.50;;;27.70;67.10;;;;;;5050324;28;20638;-91
2021/07/24 12:09:06;;;;;;;9.17;8.17;;;28.80;67.20;;;;;;5051153;28;20721;-92
2021/07/24 12:11:36;;;;;;;9.87;8.83;;;30.20;63.00;;;;;;5050176;28;20650;-91
2021/07/24 12:14:08;;;;;;;11.50;9.60;;;31.60;60.70;;;;;;5049709;28;20658;-90
2021/07/24 12:16:41;;;;;;;8.70;8.00;;;32.30;57.80;;;;;;5049835;28;21162;-92
2021/07/24 12:19:15;;;;;;;16.13;12.13;;;32.50;57.20;;;;;;5035089;28;20627;-93
2021/07/24 12:21:48;;;;;;;9.60;8.57;;;33.00;56.10;;;;;;5031513;28;20721;-93
2021/07/24 12:24:26;;;;;;;10.43;9.43;;;32.70;54.70;;;;;;5030402;28;20618;-93
2021/07/24 12:27:08;;;;;;;7.83;7.03;;;31.80;54.60;;;;;;5030913;28;20741;-92
2021/07/24 12:29:49;;;;;;;10.90;9.43;;;31.00;57.60;;;;;;5031019;28;20626;-94
2021/07/24 12:32:21;;;;;;;7.97;7.33;;;31.00;59.40;;;;;;5030224;28;20698;-92
2021/07/24 12:34:56;;;;;;;16.63;13.60;;;31.80;56.90;;;;;;5030930;28;20627;-93
2021/07/24 12:37:32;;;;;;;13.83;12.00;;;32.70;58.20;;;;;;5030756;28;20699;-92
2021/07/24 12:40:15;;;;;;;8.70;7.90;;;33.90;55.90;;;;;;5034499;28;20733;-93
2021/07/24 12:43:15;;;;;;;;;;;;;;;;;;;;;
2021/07/24 12:46:02;;;;;;;;;;;;;;;;;;;;;
2021/07/24 12:48:49;;;;;;;8.60;7.80;;;34.90;51.90;;;;;;5034605;28;20603;-89
2021/07/24 12:51:18;;;;;;;8.27;7.50;;;34.80;49.90;;;;;;5033827;28;20657;-91
2021/07/24 12:53:59;;;;;;;7.87;6.97;;;34.40;49.90;;;;;;5034442;28;20622;-93